< Typhoon 196115 1961 Season Typhoon 196117 >
Typhoon 196116 (LORNA)
General InformationTrack Information on Google Maps || NewsDisaster Info.ResourceGoogle EarthGE AnimationAtom FeedGeoJSON
Detalied Best Track (Time Zone = UTC)
Year Month Day Hour Lat. Long. Pressure (hPa) Wind (kt) Class Image Chart
1961 8 19 00 12.6 134.0 1006 0 2 -- Chart
1961 8 19 06 12.7 132.6 1005 0 2 -- Chart
1961 8 19 12 13.5 132.0 1004 0 2 -- Chart
1961 8 19 18 14.0 131.0 1002 0 2 -- Chart
1961 8 20 00 14.9 130.2 1004 0 2 -- Chart
1961 8 20 06 15.5 129.9 1002 0 2 -- Chart
1961 8 20 12 15.8 129.7 1000 0 2 -- Chart
1961 8 20 18 16.4 129.5 1000 0 2 -- Chart
1961 8 21 00 16.8 129.2 1002 0 2 -- Chart
1961 8 21 06 17.1 128.9 994 0 9 -- Chart
1961 8 21 12 16.9 128.1 992 0 9 -- Chart
1961 8 21 18 16.5 127.5 990 0 9 -- Chart
1961 8 22 00 16.5 126.9 985 0 9 -- Chart
1961 8 22 06 16.6 127.3 980 0 9 -- Chart
1961 8 22 12 16.8 127.3 980 0 9 -- Chart
1961 8 22 18 17.0 126.8 975 0 9 -- Chart
1961 8 23 00 17.5 126.5 970 0 9 -- Chart
1961 8 23 06 17.6 126.3 970 0 9 -- Chart
1961 8 23 12 18.3 125.6 970 0 9 -- Chart
1961 8 23 18 19.1 125.0 965 0 9 -- Chart
1961 8 24 00 19.8 123.9 960 0 9 -- Chart
1961 8 24 06 20.4 123.1 955 0 9 -- Chart
1961 8 24 12 21.1 122.4 950 0 9 -- Chart
1961 8 24 18 21.8 121.7 950 0 9 -- Chart
1961 8 25 00 22.8 120.5 970 0 9 -- Chart
1961 8 25 06 23.1 119.7 975 0 9 -- Chart
1961 8 25 12 23.8 119.2 980 0 9 -- Chart
1961 8 25 18 24.2 117.8 980 0 9 -- Chart
1961 8 26 00 24.8 117.2 980 0 9 -- Chart
1961 8 26 06 25.4 116.4 990 0 9 -- Chart
1961 8 26 12 25.7 115.6 990 0 9 -- Chart
1961 8 26 18 26.5 114.9 994 0 2 -- Chart
1961 8 27 00 26.9 114.1 994 0 2 -- Chart
1961 8 27 06 27.0 114.0 996 0 2 -- Chart
1961 8 27 12 27.1 114.0 998 0 2 -- Chart
1961 8 27 18 27.2 114.0 1000 0 2 -- Chart
1961 8 28 00 27.3 114.0 1002 0 6 -- Chart
Japan Meteorological Agency Best Track Data | Correction Date : 1989-06-01
< Typhoon 196115 1961 Season Typhoon 196117 >

Help